Solon, Iowa
Current Conditions -  °F | °C
As of 5:52 PM on Saturday 25 Oct 2014 (Local Time) from KCID Reporting Station
Clear Clear  
Wind Chill: 61°   Ceiling: Unl
Heat Index: 61°   Visibility: 10mi
Dew Point: 37°   Wind: 7mph
Humidity: 41%   Direction: 310°NW
Pressure: 30.03"   Gusts: NA
Location:  41.81°N, 91.49°W
Report Text: KCID 252252Z 31006KT 10SM CLR 16/03 A3003 RMK AO2 SLP170 T01610028
Loading
Personal Weather Stations






























Interactive Weather Map
Tropical Storm Tracking
New forecast layout! Learn more

10-Day Weather Forecast

Advertisements
Track Severe Weather on mobile